Galileo — 2HCI4 — position and weather

sailwx.info

Track history (hours):
 
Tides and Currents Weather Stations Pressure Air Temp Water Temp Dewpoint Dewpoint Depression Visibility Wind Speed Wind Dir Waves Ship Positions

Galileo

Last reported at 2018-Feb-19 17:11 UTC. Time now 2018-Feb-25 21:52 UTC.
Position N 34°27' W 121°45'.

Length 199 m; draft 12.9 m.

Type: Cargo ship. MMSI: 235102466.

Date/timePositionNaut miles runAvg speedWind from/ knotsBaromVisibWave heightAir tempDewpointWater temp
2018-Feb-19 17:11N 34°27' W 121°45'1 6.6
2018-Feb-19 17:01N 34°27' W 121°43'3 5.7
2018-Feb-19 16:30N 34°26' W 121°40'4 7.0
2018-Feb-19 16:00N 34°27' W 121°36'4 8.6
2018-Feb-19 15:30N 34°27' W 121°30'4 8.1
2018-Feb-19 15:00N 34°26' W 121°25'5 9.2
2018-Feb-19 14:29N 34°26' W 121°20'4 9.1
2018-Feb-19 13:59N 34°26' W 121°14'4 8.4
2018-Feb-19 13:30N 34°26' W 121°09'4 9.0
2018-Feb-19 13:01N 34°26' W 121°04'4 8.9
2018-Feb-19 12:30N 34°26' W 120°58'5 9.1
2018-Feb-19 12:00N 34°26' W 120°53'5 9.1
2018-Feb-19 11:29N 34°25' W 120°47'4 9.1
2018-Feb-19 11:00N 34°24' W 120°42'5 9.3
2018-Feb-19 10:30N 34°23' W 120°37'5 9.7
2018-Feb-19 10:00N 34°21' W 120°31'510.0
2018-Feb-19 09:30N 34°20' W 120°25'510.7
2018-Feb-19 09:00N 34°19' W 120°19'610.6
2018-Feb-19 08:25N 34°17' W 120°12'610.7
2018-Feb-19 07:52N 34°16' W 120°05'610.4
2018-Feb-19 07:15N 34°14' W 119°57'210.0
2018-Feb-19 07:00N 34°13' W 119°54'510.3
2018-Feb-19 06:30N 34°12' W 119°49'510.5
2018-Feb-19 06:00N 34°10' W 119°42'610.6
2018-Feb-19 05:28N 34°09' W 119°36'610.6
2018-Feb-19 04:53N 34°07' W 119°29'510.5
2018-Feb-19 04:26N 34°06' W 119°23'510.7
2018-Feb-19 03:58N 34°05' W 119°17'510.5
2018-Feb-19 03:30N 34°03' W 119°12'611.0
2018-Feb-19 02:58N 33°60' W 119°06'511.4
2018-Feb-19 02:30N 33°57' W 119°00'611.6
2018-Feb-19 01:59N 33°54' W 118°54'611.7
2018-Feb-19 01:31N 33°52' W 118°48'611.7
2018-Feb-19 01:00N 33°49' W 118°42'611.8
2018-Feb-19 00:29N 33°46' W 118°35'611.7
2018-Feb-19 00:00N 33°43' W 118°30'611.7
2018-Feb-18 23:30N 33°40' W 118°24'611.1
2018-Feb-18 22:58N 33°38' W 118°17'5 9.9
2018-Feb-18 22:30N 33°40' W 118°12'4 7.5
2018-Feb-18 22:00N 33°44' W 118°12'1 1.6
2018-Feb-18 21:30N 33°45' W 118°12'0 0.0
2018-Feb-18 20:51N 33°45' W 118°12'0 0.0
2018-Feb-18 20:27N 33°45' W 118°12'0 0.0
2018-Feb-18 20:00N 33°45' W 118°12'0 0.0
2018-Feb-18 19:30N 33°45' W 118°12'0 0.0
2018-Feb-18 19:00N 33°45' W 118°12'0 0.0
2018-Feb-18 18:30N 33°45' W 118°12'0 0.0
2018-Feb-18 18:01N 33°45' W 118°12'0 0.0
2018-Feb-18 17:30N 33°45' W 118°12'0 0.0
2018-Feb-18 17:00N 33°45' W 118°12'0 0.0
2018-Feb-18 16:27N 33°45' W 118°12'0 0.0
2018-Feb-18 16:00N 33°45' W 118°12'0 0.0
2018-Feb-18 15:27N 33°45' W 118°12'0 0.0
2018-Feb-18 15:00N 33°45' W 118°12'0 0.0
2018-Feb-18 14:30N 33°45' W 118°12'0 0.0
2018-Feb-18 13:57N 33°45' W 118°12'0 0.0
2018-Feb-18 13:21N 33°45' W 118°12'0 0.0
2018-Feb-18 13:00N 33°45' W 118°12'0 0.0
2018-Feb-18 12:30N 33°45' W 118°12'0 0.0
2018-Feb-18 11:57N 33°45' W 118°12'0 0.0
2018-Feb-18 11:12N 33°45' W 118°12'0 0.0
2018-Feb-18 11:00N 33°45' W 118°12'0 0.0
2018-Feb-18 10:27N 33°45' W 118°12'0 0.0
2018-Feb-18 09:54N 33°45' W 118°12'0 0.0
2018-Feb-18 09:27N 33°45' W 118°12'0 0.0
2018-Feb-18 08:57N 33°45' W 118°12'0 0.0
2018-Feb-18 08:15N 33°45' W 118°12'0 0.0
2018-Feb-18 07:57N 33°45' W 118°12'0 0.0
2018-Feb-18 07:24N 33°45' W 118°12'0 0.0
2018-Feb-18 07:00N 33°45' W 118°12'0 0.0
2018-Feb-18 06:30N 33°45' W 118°12'0 0.0
2018-Feb-18 05:57N 33°45' W 118°12'0 0.0
2018-Feb-18 05:30N 33°45' W 118°12'0 0.0
2018-Feb-18 04:57N 33°45' W 118°12'0 0.0
2018-Feb-18 04:30N 33°45' W 118°12'0 0.0
2018-Feb-18 03:57N 33°45' W 118°12'0 0.0
2018-Feb-18 03:27N 33°45' W 118°12'0 0.0
2018-Feb-18 02:36N 33°45' W 118°12'0 0.0
2018-Feb-18 02:18N 33°45' W 118°12'0 0.0
2018-Feb-18 01:57N 33°45' W 118°12'0 0.0
2018-Feb-18 01:28N 33°45' W 118°12'0 0.0
2018-Feb-18 00:54N 33°45' W 118°12'0 0.0
2018-Feb-18 00:24N 33°45' W 118°12'0 0.0
2018-Feb-18 00:00N 33°45' W 118°12'0 0.0
2018-Feb-17 23:30N 33°45' W 118°12'0 0.0
2018-Feb-17 22:51N 33°45' W 118°12'0 0.0
2018-Feb-17 22:30N 33°45' W 118°12'0 0.0
2018-Feb-17 22:00N 33°45' W 118°12'0 0.0
2018-Feb-17 21:21N 33°45' W 118°12'0 0.0
2018-Feb-17 20:54N 33°45' W 118°12'0 0.0
2018-Feb-17 20:30N 33°45' W 118°12'0 0.0
2018-Feb-17 19:57N 33°45' W 118°12'0 0.0
2018-Feb-17 19:27N 33°45' W 118°12'0 0.0
2018-Feb-17 18:54N 33°45' W 118°12'0 0.0
2018-Feb-17 18:06N 33°45' W 118°12'0 0.0
2018-Feb-17 17:57N 33°45' W 118°12'0 0.0
2018-Feb-17 17:19N 33°45' W 118°12'0 0.0
2018-Feb-17 17:01N 33°45' W 118°12'0 0.0
2018-Feb-17 16:30N 33°45' W 118°12'0 0.0
2018-Feb-17 16:00N 33°45' W 118°12'0 0.0
2018-Feb-17 15:30N 33°45' W 118°12'0 0.0
2018-Feb-17 14:51N 33°45' W 118°12'0 0.0
2018-Feb-17 14:24N 33°45' W 118°12'0 0.0
2018-Feb-17 14:00N 33°45' W 118°12'0 0.0
2018-Feb-17 13:22N 33°45' W 118°12'0 0.0
2018-Feb-17 12:55N 33°45' W 118°12'0 0.0
2018-Feb-17 12:27N 33°45' W 118°12'0 0.0
2018-Feb-17 11:57N 33°45' W 118°12'0 0.0
2018-Feb-17 11:30N 33°45' W 118°12'0 0.0
2018-Feb-17 11:00N 33°45' W 118°12'0 0.0
2018-Feb-17 10:21N 33°45' W 118°12'0 0.0
2018-Feb-17 10:00N 33°45' W 118°12'0 0.0
2018-Feb-17 09:27N 33°45' W 118°12'0 0.0
2018-Feb-17 08:45N 33°45' W 118°12'0 0.0
2018-Feb-17 08:30N 33°45' W 118°12'0 0.0
2018-Feb-17 07:57N 33°45' W 118°12'0 0.0
2018-Feb-17 07:27N 33°45' W 118°12'0 0.0
2018-Feb-17 06:57N 33°45' W 118°12'0 0.0
2018-Feb-17 06:30N 33°45' W 118°12'0 0.0
2018-Feb-17 06:00N 33°45' W 118°12'0 0.0
2018-Feb-17 05:21N 33°45' W 118°12'0 0.0
2018-Feb-17 04:51N 33°45' W 118°12'0 0.0
2018-Feb-17 04:30N 33°45' W 118°12'0 0.0
2018-Feb-17 04:00N 33°45' W 118°12'0 0.0
2018-Feb-17 03:30N 33°45' W 118°12'0 0.0
2018-Feb-17 03:00N 33°45' W 118°12'0 0.0
2018-Feb-17 02:30N 33°45' W 118°12'0 0.0
2018-Feb-17 02:00N 33°45' W 118°12'0 0.0
2018-Feb-17 01:30N 33°45' W 118°12'0 0.0
2018-Feb-17 00:45N 33°45' W 118°12'0 0.0
2018-Feb-17 00:30N 33°45' W 118°12'0 0.0
2018-Feb-17 00:00N 33°45' W 118°12'0 0.0
2018-Feb-16 23:24N 33°45' W 118°12'0 0.0
2018-Feb-16 23:00N 33°45' W 118°12'0 0.0
2018-Feb-16 22:30N 33°45' W 118°12'0 0.0
2018-Feb-16 22:00N 33°45' W 118°12'0 0.0
2018-Feb-16 21:30N 33°45' W 118°12'0 0.0
2018-Feb-16 21:00N 33°45' W 118°12'0 0.0
2018-Feb-16 20:24N 33°45' W 118°12'0 0.0
2018-Feb-16 19:57N 33°45' W 118°12'0 0.0
2018-Feb-16 19:30N 33°45' W 118°12'0 0.0
2018-Feb-16 18:57N 33°45' W 118°12'0 0.0
2018-Feb-16 18:27N 33°45' W 118°12'0 0.0
2018-Feb-16 18:00N 33°45' W 118°12'0 0.0
2018-Feb-16 17:31N 33°45' W 118°12'0 0.0
2018-Feb-16 17:00N 33°45' W 118°12'0 0.0
2018-Feb-16 16:24N 33°45' W 118°12'0 0.0
2018-Feb-16 15:57N 33°45' W 118°12'0 0.0
2018-Feb-16 15:24N 33°45' W 118°12'0 0.0
2018-Feb-16 15:00N 33°45' W 118°12'0 0.0
2018-Feb-16 14:30N 33°45' W 118°12'0 0.0
2018-Feb-16 13:57N 33°45' W 118°12'0 0.0
2018-Feb-16 13:30N 33°45' W 118°12'0 0.0
2018-Feb-16 12:57N 33°45' W 118°12'0 0.0
2018-Feb-16 12:30N 33°45' W 118°12'0 0.0
2018-Feb-16 11:48N 33°45' W 118°12'0 0.0
2018-Feb-16 11:27N 33°45' W 118°12'0 0.0
2018-Feb-16 10:57N 33°45' W 118°12'0 0.0
2018-Feb-16 10:30N 33°45' W 118°12'0 0.0
2018-Feb-16 09:54N 33°45' W 118°12'0 0.0
2018-Feb-16 09:30N 33°45' W 118°12'0 0.0
2018-Feb-16 09:00N 33°45' W 118°12'0 0.0
2018-Feb-16 08:30N 33°45' W 118°12'0 0.0
2018-Feb-16 07:58N 33°45' W 118°12'0 0.0
2018-Feb-16 07:25N 33°45' W 118°12'0 0.0
2018-Feb-16 07:01N 33°45' W 118°12'0 0.0
2018-Feb-16 06:30N 33°45' W 118°12'0 0.0
2018-Feb-16 05:54N 33°45' W 118°12'0 0.0
2018-Feb-16 05:27N 33°45' W 118°12'0 0.0
2018-Feb-16 04:54N 33°45' W 118°12'0 0.0
2018-Feb-16 04:30N 33°45' W 118°12'0 0.0
2018-Feb-16 04:00N 33°45' W 118°12'0 0.0
2018-Feb-16 03:27N 33°45' W 118°12'0 0.0
2018-Feb-16 03:00N 33°45' W 118°12'0 0.0
2018-Feb-16 02:24N 33°45' W 118°12'0 0.0
2018-Feb-16 01:57N 33°45' W 118°12'0 0.0
2018-Feb-16 01:30N 33°45' W 118°12'0 0.0
2018-Feb-16 01:00N 33°45' W 118°12'0 0.0
2018-Feb-16 00:30N 33°45' W 118°12'0 0.0
2018-Feb-16 00:00N 33°45' W 118°12'0 0.0
2018-Feb-15 23:30N 33°45' W 118°12'0 0.0
2018-Feb-15 23:00N 33°45' W 118°12'0 0.0
2018-Feb-15 22:30N 33°45' W 118°12'0 0.0
2018-Feb-15 22:00N 33°45' W 118°12'0 0.0
2018-Feb-15 21:30N 33°45' W 118°12'0 0.0
2018-Feb-15 20:55N 33°45' W 118°12'0 0.0
2018-Feb-15 20:24N 33°45' W 118°12'0 0.0
2018-Feb-15 20:00N 33°45' W 118°12'0 0.0
2018-Feb-15 19:30N 33°45' W 118°12'0 0.0
2018-Feb-15 19:00N 33°45' W 118°12'0 0.0
2018-Feb-15 18:24N 33°45' W 118°12'0 0.0
2018-Feb-15 18:00N 33°45' W 118°12'0 0.0
2018-Feb-15 17:27N 33°45' W 118°12'0 0.0
2018-Feb-15 17:00N 33°45' W 118°12'0 0.0
2018-Feb-15 16:30N 33°45' W 118°12'0 0.0
2018-Feb-15 16:00N 33°45' W 118°12'0 0.0
2018-Feb-15 15:30N 33°45' W 118°12'0 0.0
2018-Feb-15 15:00N 33°45' W 118°12'0 0.0
2018-Feb-15 14:27N 33°45' W 118°12'0 0.0
2018-Feb-15 14:00N 33°45' W 118°12'0 0.0
2018-Feb-15 13:30N 33°45' W 118°12'0 0.0
2018-Feb-15 13:01N 33°45' W 118°12'0 0.0
2018-Feb-15 12:30N 33°45' W 118°12'0 0.0
2018-Feb-15 11:57N 33°45' W 118°12'0 0.0
2018-Feb-15 11:30N 33°45' W 118°12'0 0.0
2018-Feb-15 11:00N 33°45' W 118°12'0 0.0
2018-Feb-15 10:27N 33°45' W 118°12'0 0.0
2018-Feb-15 10:00N 33°45' W 118°12'0 0.0
2018-Feb-15 09:30N 33°45' W 118°12'0 0.0
2018-Feb-15 09:00N 33°45' W 118°12'0 0.0
2018-Feb-15 08:30N 33°45' W 118°12'0 0.0
2018-Feb-15 08:00N 33°45' W 118°12'0 0.0
2018-Feb-15 07:30N 33°45' W 118°12'0 0.0
2018-Feb-15 06:57N 33°45' W 118°12'0 0.0
2018-Feb-15 06:21N 33°45' W 118°12'0 0.0
2018-Feb-15 06:01N 33°45' W 118°12'0 0.0
2018-Feb-15 05:27N 33°45' W 118°12'0 0.0
2018-Feb-15 05:00N 33°45' W 118°12'0 0.0
2018-Feb-15 04:30N 33°45' W 118°12'0 0.0
2018-Feb-15 04:00N 33°45' W 118°12'0 0.0
2018-Feb-15 03:27N 33°45' W 118°12'0 0.0
2018-Feb-15 03:00N 33°45' W 118°12'0 0.0
2018-Feb-15 02:30N 33°45' W 118°12'0 0.0
2018-Feb-15 01:57N 33°45' W 118°12'0 0.0
2018-Feb-15 01:30N 33°45' W 118°12'0 0.0
2018-Feb-15 00:48N 33°45' W 118°12'0 0.0
2018-Feb-15 00:30N 33°45' W 118°12'0 0.0
2018-Feb-15 00:00N 33°45' W 118°12'0 0.0
2018-Feb-14 23:30N 33°45' W 118°12'0 0.0
2018-Feb-14 23:00N 33°45' W 118°12'0 0.0
2018-Feb-14 22:30N 33°45' W 118°12'0 0.0
2018-Feb-14 22:00N 33°45' W 118°12'0 0.0
2018-Feb-14 21:30N 33°45' W 118°12'0 0.0
2018-Feb-14 21:00N 33°45' W 118°12'0 0.0
2018-Feb-14 20:30N 33°45' W 118°12'0 0.0
2018-Feb-14 20:00N 33°45' W 118°12'0 0.0
2018-Feb-14 19:30N 33°45' W 118°12'0 0.0
2018-Feb-14 19:00N 33°45' W 118°12'0 0.0
2018-Feb-14 18:30N 33°45' W 118°12'0 0.0
2018-Feb-14 17:57N 33°45' W 118°12'0 0.0
2018-Feb-14 17:21N 33°45' W 118°12'0 0.0
2018-Feb-14 17:01N 33°45' W 118°12'0 0.0
2018-Feb-14 16:30N 33°45' W 118°12'0 0.0
2018-Feb-14 16:00N 33°45' W 118°12'0 0.0
2018-Feb-14 15:30N 33°45' W 118°12'0 0.0
2018-Feb-14 15:00N 33°45' W 118°12'0 0.0
2018-Feb-14 14:27N 33°45' W 118°12'0 0.0
2018-Feb-14 13:57N 33°45' W 118°12'0 0.0
2018-Feb-14 13:27N 33°45' W 118°12'0 0.0
2018-Feb-14 12:57N 33°45' W 118°12'0 0.0
2018-Feb-14 12:30N 33°45' W 118°12'0 0.0
2018-Feb-14 12:00N 33°45' W 118°12'0 0.0
2018-Feb-14 11:30N 33°45' W 118°12'0 0.0
2018-Feb-14 10:57N 33°45' W 118°12'0 0.0
2018-Feb-14 10:30N 33°45' W 118°12'0 0.0
2018-Feb-14 09:51N 33°45' W 118°12'0 0.0
2018-Feb-14 09:30N 33°45' W 118°12'0 0.0
2018-Feb-14 08:54N 33°45' W 118°12'0 0.0
2018-Feb-14 08:30N 33°45' W 118°12'0 0.0
2018-Feb-14 08:00N 33°45' W 118°12'0 0.0
2018-Feb-14 07:18N 33°45' W 118°12'0 0.0
2018-Feb-14 06:57N 33°45' W 118°12'0 0.0
2018-Feb-14 06:28N 33°45' W 118°12'0 0.0
2018-Feb-14 05:57N 33°45' W 118°12'0 0.0
2018-Feb-14 05:30N 33°45' W 118°12'0 0.0
2018-Feb-14 05:00N 33°45' W 118°12'0 0.0
2018-Feb-14 04:30N 33°45' W 118°12'0 0.0
2018-Feb-14 04:00N 33°45' W 118°12'0 0.0
2018-Feb-14 03:27N 33°45' W 118°12'0 0.0
2018-Feb-14 03:00N 33°45' W 118°12'0 0.0
2018-Feb-14 02:27N 33°45' W 118°12'0 0.0
2018-Feb-14 02:00N 33°45' W 118°12'0 0.0
2018-Feb-14 01:30N 33°45' W 118°12'0 0.0
2018-Feb-14 00:42N 33°45' W 118°12'0 0.0
2018-Feb-14 00:06N 33°45' W 118°12'0 0.0
2018-Feb-14 00:01N 33°45' W 118°12'0 0.0
2018-Feb-13 23:27N 33°45' W 118°12'0 0.0
2018-Feb-13 23:00N 33°45' W 118°12'0 0.0
2018-Feb-13 22:27N 33°45' W 118°12'0 0.0
2018-Feb-13 21:57N 33°45' W 118°12'0 0.0
2018-Feb-13 21:30N 33°45' W 118°12'0 0.0
2018-Feb-13 21:00N 33°45' W 118°12'0 0.0
2018-Feb-13 20:30N 33°45' W 118°12'0 0.0
2018-Feb-13 19:57N 33°45' W 118°12'0 0.0
2018-Feb-13 19:30N 33°45' W 118°12'0 0.0
2018-Feb-13 18:57N 33°45' W 118°12'0 0.0
2018-Feb-13 18:30N 33°45' W 118°12'0 0.0
2018-Feb-13 17:51N 33°45' W 118°12'0 0.0
2018-Feb-13 17:06N 33°45' W 118°12'0 0.0
2018-Feb-13 17:00N 33°45' W 118°12'0 0.0
2018-Feb-13 16:30N 33°45' W 118°12'0 0.0
2018-Feb-13 16:00N 33°45' W 118°12'0 0.0
2018-Feb-13 15:30N 33°45' W 118°12'0 0.0
2018-Feb-13 14:57N 33°45' W 118°12'0 0.0
2018-Feb-13 14:30N 33°45' W 118°12'0 0.0
2018-Feb-13 14:00N 33°45' W 118°12'0 0.0
2018-Feb-13 13:30N 33°45' W 118°12'0 0.0
2018-Feb-13 12:51N 33°45' W 118°12'0 0.0
2018-Feb-13 12:27N 33°45' W 118°12'0 0.0
2018-Feb-13 12:00N 33°45' W 118°12'0 0.0
2018-Feb-13 11:30N 33°45' W 118°12'0 0.0
2018-Feb-13 10:51N 33°45' W 118°12'0 0.0
2018-Feb-13 10:30N 33°45' W 118°12'0 0.0
2018-Feb-13 09:57N 33°45' W 118°12'0 0.0
2018-Feb-13 09:30N 33°45' W 118°12'0 0.0
2018-Feb-13 09:00N 33°45' W 118°12'0 0.0
2018-Feb-13 08:27N 33°45' W 118°12'0 0.0
2018-Feb-13 08:00N 33°45' W 118°12'0 0.0
2018-Feb-13 07:30N 33°45' W 118°12'0 0.0
2018-Feb-13 06:58N 33°45' W 118°12'0 0.0
2018-Feb-13 06:30N 33°45' W 118°12'0 0.0
2018-Feb-13 06:00N 33°45' W 118°12'0 0.0
2018-Feb-13 05:21N 33°45' W 118°12'0 0.0
2018-Feb-13 05:01N 33°45' W 118°12'0 0.0
2018-Feb-13 04:30N 33°45' W 118°12'0 0.0
2018-Feb-13 03:42N 33°45' W 118°12'0 0.0
2018-Feb-13 03:06N 33°45' W 118°12'0 0.0
2018-Feb-13 02:54N 33°45' W 118°12'0 0.0
2018-Feb-13 02:30N 33°45' W 118°12'0 0.0
2018-Feb-13 02:00N 33°45' W 118°12'0 0.0
2018-Feb-13 01:30N 33°45' W 118°12'0 0.0
2018-Feb-13 01:00N 33°45' W 118°12'0 0.0
2018-Feb-13 00:21N 33°45' W 118°12'0 0.0
2018-Feb-13 00:00N 33°45' W 118°12'0 0.0
2018-Feb-12 23:30N 33°45' W 118°12'0 0.0
2018-Feb-12 23:00N 33°45' W 118°12'0 0.0
2018-Feb-12 22:30N 33°45' W 118°12'0 0.0
2018-Feb-12 22:00N 33°45' W 118°12'1 1.3
2018-Feb-12 21:30N 33°44' W 118°12'0 0.9
2018-Feb-12 21:00N 33°44' W 118°13'0 0.0
2018-Feb-12 20:18N 33°44' W 118°13'0 0.0
2018-Feb-12 19:57N 33°44' W 118°13'0 0.0
2018-Feb-12 19:27N 33°44' W 118°13'0 0.0
2018-Feb-12 19:00N 33°44' W 118°13'0 0.1
2018-Feb-12 18:30N 33°44' W 118°13'0 0.1
2018-Feb-12 18:00N 33°44' W 118°13'0 0.0
2018-Feb-12 17:30N 33°44' W 118°13'0 0.0
2018-Feb-12 17:00N 33°44' W 118°13'0 0.0
2018-Feb-12 16:30N 33°44' W 118°13'0 0.0
2018-Feb-12 15:57N 33°44' W 118°13'0 0.0
2018-Feb-12 15:18N 33°44' W 118°13'0 0.0
2018-Feb-12 15:00N 33°44' W 118°13'0 0.0
2018-Feb-12 14:30N 33°44' W 118°13'0 0.0
2018-Feb-12 13:57N 33°44' W 118°13'0 0.0
2018-Feb-12 13:30N 33°44' W 118°13'0 0.0
2018-Feb-12 12:54N 33°44' W 118°13'0 0.0
2018-Feb-12 12:30N 33°44' W 118°13'0 0.0
2018-Feb-12 11:54N 33°44' W 118°13'0 0.0
2018-Feb-12 11:30N 33°44' W 118°13'0 0.0
2018-Feb-12 10:57N 33°44' W 118°13'0 0.0
2018-Feb-12 10:30N 33°44' W 118°13'0 0.0
2018-Feb-12 09:57N 33°44' W 118°13'0 0.0
2018-Feb-12 09:30N 33°44' W 118°13'0 0.0
2018-Feb-12 08:57N 33°44' W 118°13'0 0.0
2018-Feb-12 08:30N 33°44' W 118°13'0 0.1
2018-Feb-12 07:57N 33°44' W 118°13'0 0.1
2018-Feb-12 07:27N 33°44' W 118°13'0 0.1
2018-Feb-12 07:00N 33°44' W 118°13'0 0.1
2018-Feb-12 06:09N 33°44' W 118°13'0 0.1
2018-Feb-12 06:00N 33°44' W 118°13'0 0.0
2018-Feb-12 05:30N 33°44' W 118°13'0 0.1
2018-Feb-12 04:57N 33°44' W 118°13'0 0.0
2018-Feb-12 04:27N 33°44' W 118°13'0 0.1
2018-Feb-12 04:00N 33°44' W 118°13'0 0.0
2018-Feb-12 03:15N 33°44' W 118°13'0 0.0
2018-Feb-12 02:54N 33°44' W 118°13'0 0.0
2018-Feb-12 02:30N 33°44' W 118°13'0 0.0
2018-Feb-12 01:57N 33°44' W 118°13'0 0.0
2018-Feb-12 01:24N 33°44' W 118°13'0 0.0
2018-Feb-12 01:00N 33°44' W 118°13'0 0.0
2018-Feb-12 00:27N 33°44' W 118°13'0 0.0
2018-Feb-11 23:57N 33°44' W 118°13'0 0.0
2018-Feb-11 23:27N 33°44' W 118°13'0 0.0
2018-Feb-11 23:00N 33°44' W 118°13'0 0.1
2018-Feb-11 22:30N 33°44' W 118°13'0 0.0
2018-Feb-11 22:00N 33°44' W 118°13'0 0.0
2018-Feb-11 21:30N 33°44' W 118°13'0 0.0
2018-Feb-11 21:00N 33°44' W 118°13'0 0.0
2018-Feb-11 20:30N 33°44' W 118°13'0 0.0
2018-Feb-11 19:57N 33°44' W 118°13'0 0.0
2018-Feb-11 19:30N 33°44' W 118°13'0 0.2
2018-Feb-11 19:00N 33°44' W 118°13'0 0.2
2018-Feb-11 18:30N 33°44' W 118°13'0 0.1
2018-Feb-11 18:00N 33°44' W 118°13'0 0.0
2018-Feb-11 17:27N 33°44' W 118°13'0 0.0
2018-Feb-11 16:54N 33°44' W 118°13'0 0.0
2018-Feb-11 16:30N 33°44' W 118°13'0 0.0
2018-Feb-11 16:00N 33°44' W 118°13'0 0.0
2018-Feb-11 15:30N 33°44' W 118°13'0 0.0
2018-Feb-11 15:00N 33°44' W 118°13'0 0.0
2018-Feb-11 14:30N 33°44' W 118°13'0 0.0
2018-Feb-11 14:00N 33°44' W 118°13'0 0.0
2018-Feb-11 13:30N 33°44' W 118°13'0 0.0
2018-Feb-11 13:00N 33°44' W 118°13'0 0.0
2018-Feb-11 12:30N 33°44' W 118°13'0 0.0
2018-Feb-11 11:54N 33°44' W 118°13'0 0.0
2018-Feb-11 11:30N 33°44' W 118°13'0 0.0
2018-Feb-11 10:57N 33°44' W 118°13'0 0.0
2018-Feb-11 10:30N 33°44' W 118°13'0 0.0
2018-Feb-11 09:57N 33°44' W 118°13'0 0.0
2018-Feb-11 09:30N 33°44' W 118°13'0 0.0
2018-Feb-11 09:00N 33°44' W 118°13'0 0.0
2018-Feb-11 08:30N 33°44' W 118°13'0 0.0
2018-Feb-11 08:00N 33°44' W 118°13'0 0.0
2018-Feb-11 07:30N 33°44' W 118°13'0 0.0
2018-Feb-11 06:45N 33°44' W 118°13'0 0.0
2018-Feb-11 06:30N 33°44' W 118°13'0 0.0
2018-Feb-11 06:00N 33°44' W 118°13'0 0.0
2018-Feb-11 05:30N 33°44' W 118°13'0 0.0
2018-Feb-11 04:57N 33°44' W 118°13'0 0.0
2018-Feb-11 04:30N 33°44' W 118°13'0 0.0
2018-Feb-11 04:00N 33°44' W 118°13'0 0.0
2018-Feb-11 03:30N 33°44' W 118°13'0 0.0
2018-Feb-11 03:00N 33°44' W 118°13'0 0.0
2018-Feb-11 02:24N 33°44' W 118°13'0 0.0
2018-Feb-11 02:00N 33°44' W 118°13'0 0.1
2018-Feb-11 01:30N 33°44' W 118°13'0 0.0
2018-Feb-11 01:00N 33°44' W 118°13'0 0.0
2018-Feb-11 00:30N 33°44' W 118°13'0 0.0
2018-Feb-11 00:00N 33°44' W 118°13'0 0.1
2018-Feb-10 23:30N 33°44' W 118°13'0 0.1
2018-Feb-10 23:00N 33°44' W 118°13'0 0.0
2018-Feb-10 22:30N 33°44' W 118°13'0 0.0
2018-Feb-10 22:00N 33°44' W 118°13'0 0.1
2018-Feb-10 21:30N 33°44' W 118°13'0 0.0
2018-Feb-10 21:00N 33°44' W 118°13'0 0.0
2018-Feb-10 20:27N 33°44' W 118°13'0 0.0
2018-Feb-10 20:00N 33°44' W 118°13'0 0.0
2018-Feb-10 19:30N 33°44' W 118°13'0 0.0
2018-Feb-10 18:51N 33°44' W 118°13'0 0.0
2018-Feb-10 18:30N 33°44' W 118°13'0 0.0
2018-Feb-10 18:00N 33°44' W 118°13'0 0.0
2018-Feb-10 17:27N 33°44' W 118°13'0 0.0
2018-Feb-10 17:00N 33°44' W 118°13'0 0.0
2018-Feb-10 16:30N 33°44' W 118°13'0 0.0
2018-Feb-10 15:57N 33°44' W 118°13'0 0.0
2018-Feb-10 15:27N 33°44' W 118°13'0 0.0
2018-Feb-10 14:57N 33°44' W 118°13'0 0.1
2018-Feb-10 14:30N 33°44' W 118°13'0 0.1
2018-Feb-10 14:00N 33°44' W 118°13'0 0.0
2018-Feb-10 13:27N 33°44' W 118°13'0 0.1
2018-Feb-10 12:54N 33°44' W 118°13'0 0.0
2018-Feb-10 12:27N 33°44' W 118°13'0 0.0
2018-Feb-10 11:48N 33°44' W 118°13'0 0.0
2018-Feb-10 11:30N 33°44' W 118°13'0 0.0
2018-Feb-10 10:57N 33°44' W 118°13'0 0.0
2018-Feb-10 10:30N 33°44' W 118°13'0 0.0
2018-Feb-10 09:57N 33°44' W 118°13'0 0.1
2018-Feb-10 09:30N 33°44' W 118°13'0 0.0
2018-Feb-10 09:00N 33°44' W 118°13'0 0.0
2018-Feb-10 08:30N 33°44' W 118°13'0 0.0
2018-Feb-10 08:00N 33°44' W 118°13'0 0.0
2018-Feb-10 07:27N 33°44' W 118°13'0 0.0
2018-Feb-10 07:00N 33°44' W 118°13'0 0.0
2018-Feb-10 06:12N 33°44' W 118°13'0 0.0
2018-Feb-10 05:36N 33°44' W 118°13'0 0.0
2018-Feb-10 05:30N 33°44' W 118°13'0 0.0
2018-Feb-10 05:00N 33°44' W 118°13'0 0.0
2018-Feb-10 04:27N 33°44' W 118°13'0 0.0
2018-Feb-10 04:00N 33°44' W 118°13'0 0.0
2018-Feb-10 03:21N 33°44' W 118°13'0 0.0
2018-Feb-10 02:54N 33°44' W 118°13'0 0.1
2018-Feb-10 02:24N 33°44' W 118°13'0 0.0
2018-Feb-10 01:57N 33°44' W 118°13'0 0.0
2018-Feb-10 01:21N 33°44' W 118°13'0 0.0
2018-Feb-10 00:51N 33°44' W 118°13'0 0.0
2018-Feb-10 00:30N 33°44' W 118°13'0 0.0
2018-Feb-10 00:00N 33°44' W 118°13'0 0.0
2018-Feb-09 23:18N 33°44' W 118°13'0 0.0
2018-Feb-09 22:51N 33°44' W 118°13'0 0.0
2018-Feb-09 22:39N 33°44' W 118°13'  
Track history (hours):
 
Tides and Currents Weather Stations Pressure Air Temp Water Temp Dewpoint Dewpoint Depression Visibility Wind Speed Wind Dir Waves Ship Positions

Galileo

Last reported at 2018-Feb-19 17:11 UTC. Time now 2018-Feb-25 21:52 UTC.
Position N 34°27' W 121°45'.

Length 199 m; draft 12.9 m.

Type: Cargo ship. MMSI: 235102466.

Date/timePositionNaut miles runAvg speedWind from/ knotsBaromVisibWave heightAir tempDewpointWater temp
2018-Feb-19 17:11N 34°27' W 121°45'1 6.6
2018-Feb-19 17:01N 34°27' W 121°43'3 5.7
2018-Feb-19 16:30N 34°26' W 121°40'4 7.0
2018-Feb-19 16:00N 34°27' W 121°36'4 8.6
2018-Feb-19 15:30N 34°27' W 121°30'4 8.1
2018-Feb-19 15:00N 34°26' W 121°25'5 9.2
2018-Feb-19 14:29N 34°26' W 121°20'4 9.1
2018-Feb-19 13:59N 34°26' W 121°14'4 8.4
2018-Feb-19 13:30N 34°26' W 121°09'4 9.0
2018-Feb-19 13:01N 34°26' W 121°04'4 8.9
2018-Feb-19 12:30N 34°26' W 120°58'5 9.1
2018-Feb-19 12:00N 34°26' W 120°53'5 9.1
2018-Feb-19 11:29N 34°25' W 120°47'4 9.1
2018-Feb-19 11:00N 34°24' W 120°42'5 9.3
2018-Feb-19 10:30N 34°23' W 120°37'5 9.7
2018-Feb-19 10:00N 34°21' W 120°31'510.0
2018-Feb-19 09:30N 34°20' W 120°25'510.7
2018-Feb-19 09:00N 34°19' W 120°19'610.6
2018-Feb-19 08:25N 34°17' W 120°12'610.7
2018-Feb-19 07:52N 34°16' W 120°05'610.4
2018-Feb-19 07:15N 34°14' W 119°57'210.0
2018-Feb-19 07:00N 34°13' W 119°54'510.3
2018-Feb-19 06:30N 34°12' W 119°49'510.5
2018-Feb-19 06:00N 34°10' W 119°42'610.6
2018-Feb-19 05:28N 34°09' W 119°36'610.6
2018-Feb-19 04:53N 34°07' W 119°29'510.5
2018-Feb-19 04:26N 34°06' W 119°23'510.7
2018-Feb-19 03:58N 34°05' W 119°17'510.5
2018-Feb-19 03:30N 34°03' W 119°12'611.0
2018-Feb-19 02:58N 33°60' W 119°06'511.4
2018-Feb-19 02:30N 33°57' W 119°00'611.6
2018-Feb-19 01:59N 33°54' W 118°54'611.7
2018-Feb-19 01:31N 33°52' W 118°48'611.7
2018-Feb-19 01:00N 33°49' W 118°42'611.8
2018-Feb-19 00:29N 33°46' W 118°35'611.7
2018-Feb-19 00:00N 33°43' W 118°30'611.7
2018-Feb-18 23:30N 33°40' W 118°24'611.1
2018-Feb-18 22:58N 33°38' W 118°17'5 9.9
2018-Feb-18 22:30N 33°40' W 118°12'4 7.5
2018-Feb-18 22:00N 33°44' W 118°12'1 1.6
2018-Feb-18 21:30N 33°45' W 118°12'0 0.0
2018-Feb-18 20:51N 33°45' W 118°12'0 0.0
2018-Feb-18 20:27N 33°45' W 118°12'0 0.0
2018-Feb-18 20:00N 33°45' W 118°12'0 0.0
2018-Feb-18 19:30N 33°45' W 118°12'0 0.0
2018-Feb-18 19:00N 33°45' W 118°12'0 0.0
2018-Feb-18 18:30N 33°45' W 118°12'0 0.0
2018-Feb-18 18:01N 33°45' W 118°12'0 0.0
2018-Feb-18 17:30N 33°45' W 118°12'0 0.0
2018-Feb-18 17:00N 33°45' W 118°12'0 0.0
2018-Feb-18 16:27N 33°45' W 118°12'0 0.0
2018-Feb-18 16:00N 33°45' W 118°12'0 0.0
2018-Feb-18 15:27N 33°45' W 118°12'0 0.0
2018-Feb-18 15:00N 33°45' W 118°12'0 0.0
2018-Feb-18 14:30N 33°45' W 118°12'0 0.0
2018-Feb-18 13:57N 33°45' W 118°12'0 0.0
2018-Feb-18 13:21N 33°45' W 118°12'0 0.0
2018-Feb-18 13:00N 33°45' W 118°12'0 0.0
2018-Feb-18 12:30N 33°45' W 118°12'0 0.0
2018-Feb-18 11:57N 33°45' W 118°12'0 0.0
2018-Feb-18 11:12N 33°45' W 118°12'0 0.0
2018-Feb-18 11:00N 33°45' W 118°12'0 0.0
2018-Feb-18 10:27N 33°45' W 118°12'0 0.0
2018-Feb-18 09:54N 33°45' W 118°12'0 0.0
2018-Feb-18 09:27N 33°45' W 118°12'0 0.0
2018-Feb-18 08:57N 33°45' W 118°12'0 0.0
2018-Feb-18 08:15N 33°45' W 118°12'0 0.0
2018-Feb-18 07:57N 33°45' W 118°12'0 0.0
2018-Feb-18 07:24N 33°45' W 118°12'0 0.0
2018-Feb-18 07:00N 33°45' W 118°12'0 0.0
2018-Feb-18 06:30N 33°45' W 118°12'0 0.0
2018-Feb-18 05:57N 33°45' W 118°12'0 0.0
2018-Feb-18 05:30N 33°45' W 118°12'0 0.0
2018-Feb-18 04:57N 33°45' W 118°12'0 0.0
2018-Feb-18 04:30N 33°45' W 118°12'0 0.0
2018-Feb-18 03:57N 33°45' W 118°12'0 0.0
2018-Feb-18 03:27N 33°45' W 118°12'0 0.0
2018-Feb-18 02:36N 33°45' W 118°12'0 0.0
2018-Feb-18 02:18N 33°45' W 118°12'0 0.0
2018-Feb-18 01:57N 33°45' W 118°12'0 0.0
2018-Feb-18 01:28N 33°45' W 118°12'0 0.0
2018-Feb-18 00:54N 33°45' W 118°12'0 0.0
2018-Feb-18 00:24N 33°45' W 118°12'0 0.0
2018-Feb-18 00:00N 33°45' W 118°12'0 0.0
2018-Feb-17 23:30N 33°45' W 118°12'0 0.0
2018-Feb-17 22:51N 33°45' W 118°12'0 0.0
2018-Feb-17 22:30N 33°45' W 118°12'0 0.0
2018-Feb-17 22:00N 33°45' W 118°12'0 0.0
2018-Feb-17 21:21N 33°45' W 118°12'0 0.0
2018-Feb-17 20:54N 33°45' W 118°12'0 0.0
2018-Feb-17 20:30N 33°45' W 118°12'0 0.0
2018-Feb-17 19:57N 33°45' W 118°12'0 0.0
2018-Feb-17 19:27N 33°45' W 118°12'0 0.0
2018-Feb-17 18:54N 33°45' W 118°12'0 0.0
2018-Feb-17 18:06N 33°45' W 118°12'0 0.0
2018-Feb-17 17:57N 33°45' W 118°12'0 0.0
2018-Feb-17 17:19N 33°45' W 118°12'0 0.0
2018-Feb-17 17:01N 33°45' W 118°12'0 0.0
2018-Feb-17 16:30N 33°45' W 118°12'0 0.0
2018-Feb-17 16:00N 33°45' W 118°12'0 0.0
2018-Feb-17 15:30N 33°45' W 118°12'0 0.0
2018-Feb-17 14:51N 33°45' W 118°12'0 0.0
2018-Feb-17 14:24N 33°45' W 118°12'0 0.0
2018-Feb-17 14:00N 33°45' W 118°12'0 0.0
2018-Feb-17 13:22N 33°45' W 118°12'0 0.0
2018-Feb-17 12:55N 33°45' W 118°12'0 0.0
2018-Feb-17 12:27N 33°45' W 118°12'0 0.0
2018-Feb-17 11:57N 33°45' W 118°12'0 0.0
2018-Feb-17 11:30N 33°45' W 118°12'0 0.0
2018-Feb-17 11:00N 33°45' W 118°12'0 0.0
2018-Feb-17 10:21N 33°45' W 118°12'0 0.0
2018-Feb-17 10:00N 33°45' W 118°12'0 0.0
2018-Feb-17 09:27N 33°45' W 118°12'0 0.0
2018-Feb-17 08:45N 33°45' W 118°12'0 0.0
2018-Feb-17 08:30N 33°45' W 118°12'0 0.0
2018-Feb-17 07:57N 33°45' W 118°12'0 0.0
2018-Feb-17 07:27N 33°45' W 118°12'0 0.0
2018-Feb-17 06:57N 33°45' W 118°12'0 0.0
2018-Feb-17 06:30N 33°45' W 118°12'0 0.0
2018-Feb-17 06:00N 33°45' W 118°12'0 0.0
2018-Feb-17 05:21N 33°45' W 118°12'0 0.0
2018-Feb-17 04:51N 33°45' W 118°12'0 0.0
2018-Feb-17 04:30N 33°45' W 118°12'0 0.0
2018-Feb-17 04:00N 33°45' W 118°12'0 0.0
2018-Feb-17 03:30N 33°45' W 118°12'0 0.0
2018-Feb-17 03:00N 33°45' W 118°12'0 0.0
2018-Feb-17 02:30N 33°45' W 118°12'0 0.0
2018-Feb-17 02:00N 33°45' W 118°12'0 0.0
2018-Feb-17 01:30N 33°45' W 118°12'0 0.0
2018-Feb-17 00:45N 33°45' W 118°12'0 0.0
2018-Feb-17 00:30N 33°45' W 118°12'0 0.0
2018-Feb-17 00:00N 33°45' W 118°12'0 0.0
2018-Feb-16 23:24N 33°45' W 118°12'0 0.0
2018-Feb-16 23:00N 33°45' W 118°12'0 0.0
2018-Feb-16 22:30N 33°45' W 118°12'0 0.0
2018-Feb-16 22:00N 33°45' W 118°12'0 0.0
2018-Feb-16 21:30N 33°45' W 118°12'0 0.0
2018-Feb-16 21:00N 33°45' W 118°12'0 0.0
2018-Feb-16 20:24N 33°45' W 118°12'0 0.0
2018-Feb-16 19:57N 33°45' W 118°12'0 0.0
2018-Feb-16 19:30N 33°45' W 118°12'0 0.0
2018-Feb-16 18:57N 33°45' W 118°12'0 0.0
2018-Feb-16 18:27N 33°45' W 118°12'0 0.0
2018-Feb-16 18:00N 33°45' W 118°12'0 0.0
2018-Feb-16 17:31N 33°45' W 118°12'0 0.0
2018-Feb-16 17:00N 33°45' W 118°12'0 0.0
2018-Feb-16 16:24N 33°45' W 118°12'0 0.0
2018-Feb-16 15:57N 33°45' W 118°12'0 0.0
2018-Feb-16 15:24N 33°45' W 118°12'0 0.0
2018-Feb-16 15:00N 33°45' W 118°12'0 0.0
2018-Feb-16 14:30N 33°45' W 118°12'0 0.0
2018-Feb-16 13:57N 33°45' W 118°12'0 0.0
2018-Feb-16 13:30N 33°45' W 118°12'0 0.0
2018-Feb-16 12:57N 33°45' W 118°12'0 0.0
2018-Feb-16 12:30N 33°45' W 118°12'0 0.0
2018-Feb-16 11:48N 33°45' W 118°12'0 0.0
2018-Feb-16 11:27N 33°45' W 118°12'0 0.0
2018-Feb-16 10:57N 33°45' W 118°12'0 0.0
2018-Feb-16 10:30N 33°45' W 118°12'0 0.0
2018-Feb-16 09:54N 33°45' W 118°12'0 0.0
2018-Feb-16 09:30N 33°45' W 118°12'0 0.0
2018-Feb-16 09:00N 33°45' W 118°12'0 0.0
2018-Feb-16 08:30N 33°45' W 118°12'0 0.0
2018-Feb-16 07:58N 33°45' W 118°12'0 0.0
2018-Feb-16 07:25N 33°45' W 118°12'0 0.0
2018-Feb-16 07:01N 33°45' W 118°12'0 0.0
2018-Feb-16 06:30N 33°45' W 118°12'0 0.0
2018-Feb-16 05:54N 33°45' W 118°12'0 0.0
2018-Feb-16 05:27N 33°45' W 118°12'0 0.0
2018-Feb-16 04:54N 33°45' W 118°12'0 0.0
2018-Feb-16 04:30N 33°45' W 118°12'0 0.0
2018-Feb-16 04:00N 33°45' W 118°12'0 0.0
2018-Feb-16 03:27N 33°45' W 118°12'0 0.0
2018-Feb-16 03:00N 33°45' W 118°12'0 0.0
2018-Feb-16 02:24N 33°45' W 118°12'0 0.0
2018-Feb-16 01:57N 33°45' W 118°12'0 0.0
2018-Feb-16 01:30N 33°45' W 118°12'0 0.0
2018-Feb-16 01:00N 33°45' W 118°12'0 0.0
2018-Feb-16 00:30N 33°45' W 118°12'0 0.0
2018-Feb-16 00:00N 33°45' W 118°12'0 0.0
2018-Feb-15 23:30N 33°45' W 118°12'0 0.0
2018-Feb-15 23:00N 33°45' W 118°12'0 0.0
2018-Feb-15 22:30N 33°45' W 118°12'0 0.0
2018-Feb-15 22:00N 33°45' W 118°12'0 0.0
2018-Feb-15 21:30N 33°45' W 118°12'0 0.0
2018-Feb-15 20:55N 33°45' W 118°12'0 0.0
2018-Feb-15 20:24N 33°45' W 118°12'0 0.0
2018-Feb-15 20:00N 33°45' W 118°12'0 0.0
2018-Feb-15 19:30N 33°45' W 118°12'0 0.0
2018-Feb-15 19:00N 33°45' W 118°12'0 0.0
2018-Feb-15 18:24N 33°45' W 118°12'0 0.0
2018-Feb-15 18:00N 33°45' W 118°12'0 0.0
2018-Feb-15 17:27N 33°45' W 118°12'0 0.0
2018-Feb-15 17:00N 33°45' W 118°12'0 0.0
2018-Feb-15 16:30N 33°45' W 118°12'0 0.0
2018-Feb-15 16:00N 33°45' W 118°12'0 0.0
2018-Feb-15 15:30N 33°45' W 118°12'0 0.0
2018-Feb-15 15:00N 33°45' W 118°12'0 0.0
2018-Feb-15 14:27N 33°45' W 118°12'0 0.0
2018-Feb-15 14:00N 33°45' W 118°12'0 0.0
2018-Feb-15 13:30N 33°45' W 118°12'0 0.0
2018-Feb-15 13:01N 33°45' W 118°12'0 0.0
2018-Feb-15 12:30N 33°45' W 118°12'0 0.0
2018-Feb-15 11:57N 33°45' W 118°12'0 0.0
2018-Feb-15 11:30N 33°45' W 118°12'0 0.0
2018-Feb-15 11:00N 33°45' W 118°12'0 0.0
2018-Feb-15 10:27N 33°45' W 118°12'0 0.0
2018-Feb-15 10:00N 33°45' W 118°12'0 0.0
2018-Feb-15 09:30N 33°45' W 118°12'0 0.0
2018-Feb-15 09:00N 33°45' W 118°12'0 0.0
2018-Feb-15 08:30N 33°45' W 118°12'0 0.0
2018-Feb-15 08:00N 33°45' W 118°12'0 0.0
2018-Feb-15 07:30N 33°45' W 118°12'0 0.0
2018-Feb-15 06:57N 33°45' W 118°12'0 0.0
2018-Feb-15 06:21N 33°45' W 118°12'0 0.0
2018-Feb-15 06:01N 33°45' W 118°12'0 0.0
2018-Feb-15 05:27N 33°45' W 118°12'0 0.0
2018-Feb-15 05:00N 33°45' W 118°12'0 0.0
2018-Feb-15 04:30N 33°45' W 118°12'0 0.0
2018-Feb-15 04:00N 33°45' W 118°12'0 0.0
2018-Feb-15 03:27N 33°45' W 118°12'0 0.0
2018-Feb-15 03:00N 33°45' W 118°12'0 0.0
2018-Feb-15 02:30N 33°45' W 118°12'0 0.0
2018-Feb-15 01:57N 33°45' W 118°12'0 0.0
2018-Feb-15 01:30N 33°45' W 118°12'0 0.0
2018-Feb-15 00:48N 33°45' W 118°12'0 0.0
2018-Feb-15 00:30N 33°45' W 118°12'0 0.0
2018-Feb-15 00:00N 33°45' W 118°12'0 0.0
2018-Feb-14 23:30N 33°45' W 118°12'0 0.0
2018-Feb-14 23:00N 33°45' W 118°12'0 0.0
2018-Feb-14 22:30N 33°45' W 118°12'0 0.0
2018-Feb-14 22:00N 33°45' W 118°12'0 0.0
2018-Feb-14 21:30N 33°45' W 118°12'0 0.0
2018-Feb-14 21:00N 33°45' W 118°12'0 0.0
2018-Feb-14 20:30N 33°45' W 118°12'0 0.0
2018-Feb-14 20:00N 33°45' W 118°12'0 0.0
2018-Feb-14 19:30N 33°45' W 118°12'0 0.0
2018-Feb-14 19:00N 33°45' W 118°12'0 0.0
2018-Feb-14 18:30N 33°45' W 118°12'0 0.0
2018-Feb-14 17:57N 33°45' W 118°12'0 0.0
2018-Feb-14 17:21N 33°45' W 118°12'0 0.0
2018-Feb-14 17:01N 33°45' W 118°12'0 0.0
2018-Feb-14 16:30N 33°45' W 118°12'0 0.0
2018-Feb-14 16:00N 33°45' W 118°12'0 0.0
2018-Feb-14 15:30N 33°45' W 118°12'0 0.0
2018-Feb-14 15:00N 33°45' W 118°12'0 0.0
2018-Feb-14 14:27N 33°45' W 118°12'0 0.0
2018-Feb-14 13:57N 33°45' W 118°12'0 0.0
2018-Feb-14 13:27N 33°45' W 118°12'0 0.0
2018-Feb-14 12:57N 33°45' W 118°12'0 0.0
2018-Feb-14 12:30N 33°45' W 118°12'0 0.0
2018-Feb-14 12:00N 33°45' W 118°12'0 0.0
2018-Feb-14 11:30N 33°45' W 118°12'0 0.0
2018-Feb-14 10:57N 33°45' W 118°12'0 0.0
2018-Feb-14 10:30N 33°45' W 118°12'0 0.0
2018-Feb-14 09:51N 33°45' W 118°12'0 0.0
2018-Feb-14 09:30N 33°45' W 118°12'0 0.0
2018-Feb-14 08:54N 33°45' W 118°12'0 0.0
2018-Feb-14 08:30N 33°45' W 118°12'0 0.0
2018-Feb-14 08:00N 33°45' W 118°12'0 0.0
2018-Feb-14 07:18N 33°45' W 118°12'0 0.0
2018-Feb-14 06:57N 33°45' W 118°12'0 0.0
2018-Feb-14 06:28N 33°45' W 118°12'0 0.0
2018-Feb-14 05:57N 33°45' W 118°12'0 0.0
2018-Feb-14 05:30N 33°45' W 118°12'0 0.0
2018-Feb-14 05:00N 33°45' W 118°12'0 0.0
2018-Feb-14 04:30N 33°45' W 118°12'0 0.0
2018-Feb-14 04:00N 33°45' W 118°12'0 0.0
2018-Feb-14 03:27N 33°45' W 118°12'0 0.0
2018-Feb-14 03:00N 33°45' W 118°12'0 0.0
2018-Feb-14 02:27N 33°45' W 118°12'0 0.0
2018-Feb-14 02:00N 33°45' W 118°12'0 0.0
2018-Feb-14 01:30N 33°45' W 118°12'0 0.0
2018-Feb-14 00:42N 33°45' W 118°12'0 0.0
2018-Feb-14 00:06N 33°45' W 118°12'0 0.0
2018-Feb-14 00:01N 33°45' W 118°12'0 0.0
2018-Feb-13 23:27N 33°45' W 118°12'0 0.0
2018-Feb-13 23:00N 33°45' W 118°12'0 0.0
2018-Feb-13 22:27N 33°45' W 118°12'0 0.0
2018-Feb-13 21:57N 33°45' W 118°12'0 0.0
2018-Feb-13 21:30N 33°45' W 118°12'0 0.0
2018-Feb-13 21:00N 33°45' W 118°12'0 0.0
2018-Feb-13 20:30N 33°45' W 118°12'0 0.0
2018-Feb-13 19:57N 33°45' W 118°12'0 0.0
2018-Feb-13 19:30N 33°45' W 118°12'0 0.0
2018-Feb-13 18:57N 33°45' W 118°12'0 0.0
2018-Feb-13 18:30N 33°45' W 118°12'0 0.0
2018-Feb-13 17:51N 33°45' W 118°12'0 0.0
2018-Feb-13 17:06N 33°45' W 118°12'0 0.0
2018-Feb-13 17:00N 33°45' W 118°12'0 0.0
2018-Feb-13 16:30N 33°45' W 118°12'0 0.0
2018-Feb-13 16:00N 33°45' W 118°12'0 0.0
2018-Feb-13 15:30N 33°45' W 118°12'0 0.0
2018-Feb-13 14:57N 33°45' W 118°12'0 0.0
2018-Feb-13 14:30N 33°45' W 118°12'0 0.0
2018-Feb-13 14:00N 33°45' W 118°12'0 0.0
2018-Feb-13 13:30N 33°45' W 118°12'0 0.0
2018-Feb-13 12:51N 33°45' W 118°12'0 0.0
2018-Feb-13 12:27N 33°45' W 118°12'0 0.0
2018-Feb-13 12:00N 33°45' W 118°12'0 0.0
2018-Feb-13 11:30N 33°45' W 118°12'0 0.0
2018-Feb-13 10:51N 33°45' W 118°12'0 0.0
2018-Feb-13 10:30N 33°45' W 118°12'0 0.0
2018-Feb-13 09:57N 33°45' W 118°12'0 0.0
2018-Feb-13 09:30N 33°45' W 118°12'0 0.0
2018-Feb-13 09:00N 33°45' W 118°12'0 0.0
2018-Feb-13 08:27N 33°45' W 118°12'0 0.0
2018-Feb-13 08:00N 33°45' W 118°12'0 0.0
2018-Feb-13 07:30N 33°45' W 118°12'0 0.0
2018-Feb-13 06:58N 33°45' W 118°12'0 0.0
2018-Feb-13 06:30N 33°45' W 118°12'0 0.0
2018-Feb-13 06:00N 33°45' W 118°12'0 0.0
2018-Feb-13 05:21N 33°45' W 118°12'0 0.0
2018-Feb-13 05:01N 33°45' W 118°12'0 0.0
2018-Feb-13 04:30N 33°45' W 118°12'0 0.0
2018-Feb-13 03:42N 33°45' W 118°12'0 0.0
2018-Feb-13 03:06N 33°45' W 118°12'0 0.0
2018-Feb-13 02:54N 33°45' W 118°12'0 0.0
2018-Feb-13 02:30N 33°45' W 118°12'0 0.0
2018-Feb-13 02:00N 33°45' W 118°12'0 0.0
2018-Feb-13 01:30N 33°45' W 118°12'0 0.0
2018-Feb-13 01:00N 33°45' W 118°12'0 0.0
2018-Feb-13 00:21N 33°45' W 118°12'0 0.0
2018-Feb-13 00:00N 33°45' W 118°12'0 0.0
2018-Feb-12 23:30N 33°45' W 118°12'0 0.0
2018-Feb-12 23:00N 33°45' W 118°12'0 0.0
2018-Feb-12 22:30N 33°45' W 118°12'0 0.0
2018-Feb-12 22:00N 33°45' W 118°12'1 1.3
2018-Feb-12 21:30N 33°44' W 118°12'0 0.9
2018-Feb-12 21:00N 33°44' W 118°13'0 0.0
2018-Feb-12 20:18N 33°44' W 118°13'0 0.0
2018-Feb-12 19:57N 33°44' W 118°13'0 0.0
2018-Feb-12 19:27N 33°44' W 118°13'0 0.0
2018-Feb-12 19:00N 33°44' W 118°13'0 0.1
2018-Feb-12 18:30N 33°44' W 118°13'0 0.1
2018-Feb-12 18:00N 33°44' W 118°13'0 0.0
2018-Feb-12 17:30N 33°44' W 118°13'0 0.0
2018-Feb-12 17:00N 33°44' W 118°13'0 0.0
2018-Feb-12 16:30N 33°44' W 118°13'0 0.0
2018-Feb-12 15:57N 33°44' W 118°13'0 0.0
2018-Feb-12 15:18N 33°44' W 118°13'0 0.0
2018-Feb-12 15:00N 33°44' W 118°13'0 0.0
2018-Feb-12 14:30N 33°44' W 118°13'0 0.0
2018-Feb-12 13:57N 33°44' W 118°13'0 0.0
2018-Feb-12 13:30N 33°44' W 118°13'0 0.0
2018-Feb-12 12:54N 33°44' W 118°13'0 0.0
2018-Feb-12 12:30N 33°44' W 118°13'0 0.0
2018-Feb-12 11:54N 33°44' W 118°13'0 0.0
2018-Feb-12 11:30N 33°44' W 118°13'0 0.0
2018-Feb-12 10:57N 33°44' W 118°13'0 0.0
2018-Feb-12 10:30N 33°44' W 118°13'0 0.0
2018-Feb-12 09:57N 33°44' W 118°13'0 0.0
2018-Feb-12 09:30N 33°44' W 118°13'0 0.0
2018-Feb-12 08:57N 33°44' W 118°13'0 0.0
2018-Feb-12 08:30N 33°44' W 118°13'0 0.1
2018-Feb-12 07:57N 33°44' W 118°13'0 0.1
2018-Feb-12 07:27N 33°44' W 118°13'0 0.1
2018-Feb-12 07:00N 33°44' W 118°13'0 0.1
2018-Feb-12 06:09N 33°44' W 118°13'0 0.1
2018-Feb-12 06:00N 33°44' W 118°13'0 0.0
2018-Feb-12 05:30N 33°44' W 118°13'0 0.1
2018-Feb-12 04:57N 33°44' W 118°13'0 0.0
2018-Feb-12 04:27N 33°44' W 118°13'0 0.1
2018-Feb-12 04:00N 33°44' W 118°13'0 0.0
2018-Feb-12 03:15N 33°44' W 118°13'0 0.0
2018-Feb-12 02:54N 33°44' W 118°13'0 0.0
2018-Feb-12 02:30N 33°44' W 118°13'0 0.0
2018-Feb-12 01:57N 33°44' W 118°13'0 0.0
2018-Feb-12 01:24N 33°44' W 118°13'0 0.0
2018-Feb-12 01:00N 33°44' W 118°13'0 0.0
2018-Feb-12 00:27N 33°44' W 118°13'0 0.0
2018-Feb-11 23:57N 33°44' W 118°13'0 0.0
2018-Feb-11 23:27N 33°44' W 118°13'0 0.0
2018-Feb-11 23:00N 33°44' W 118°13'0 0.1
2018-Feb-11 22:30N 33°44' W 118°13'0 0.0
2018-Feb-11 22:00N 33°44' W 118°13'0 0.0
2018-Feb-11 21:30N 33°44' W 118°13'0 0.0
2018-Feb-11 21:00N 33°44' W 118°13'0 0.0
2018-Feb-11 20:30N 33°44' W 118°13'0 0.0
2018-Feb-11 19:57N 33°44' W 118°13'0 0.0
2018-Feb-11 19:30N 33°44' W 118°13'0 0.2
2018-Feb-11 19:00N 33°44' W 118°13'0 0.2
2018-Feb-11 18:30N 33°44' W 118°13'0 0.1
2018-Feb-11 18:00N 33°44' W 118°13'0 0.0
2018-Feb-11 17:27N 33°44' W 118°13'0 0.0
2018-Feb-11 16:54N 33°44' W 118°13'0 0.0
2018-Feb-11 16:30N 33°44' W 118°13'0 0.0
2018-Feb-11 16:00N 33°44' W 118°13'0 0.0
2018-Feb-11 15:30N 33°44' W 118°13'0 0.0
2018-Feb-11 15:00N 33°44' W 118°13'0 0.0
2018-Feb-11 14:30N 33°44' W 118°13'0 0.0
2018-Feb-11 14:00N 33°44' W 118°13'0 0.0
2018-Feb-11 13:30N 33°44' W 118°13'0 0.0
2018-Feb-11 13:00N 33°44' W 118°13'0 0.0
2018-Feb-11 12:30N 33°44' W 118°13'0 0.0
2018-Feb-11 11:54N 33°44' W 118°13'0 0.0
2018-Feb-11 11:30N 33°44' W 118°13'0 0.0
2018-Feb-11 10:57N 33°44' W 118°13'0 0.0
2018-Feb-11 10:30N 33°44' W 118°13'0 0.0
2018-Feb-11 09:57N 33°44' W 118°13'0 0.0
2018-Feb-11 09:30N 33°44' W 118°13'0 0.0
2018-Feb-11 09:00N 33°44' W 118°13'0 0.0
2018-Feb-11 08:30N 33°44' W 118°13'0 0.0
2018-Feb-11 08:00N 33°44' W 118°13'0 0.0
2018-Feb-11 07:30N 33°44' W 118°13'0 0.0
2018-Feb-11 06:45N 33°44' W 118°13'0 0.0
2018-Feb-11 06:30N 33°44' W 118°13'0 0.0
2018-Feb-11 06:00N 33°44' W 118°13'0 0.0
2018-Feb-11 05:30N 33°44' W 118°13'0 0.0
2018-Feb-11 04:57N 33°44' W 118°13'0 0.0
2018-Feb-11 04:30N 33°44' W 118°13'0 0.0
2018-Feb-11 04:00N 33°44' W 118°13'0 0.0
2018-Feb-11 03:30N 33°44' W 118°13'0 0.0
2018-Feb-11 03:00N 33°44' W 118°13'0 0.0
2018-Feb-11 02:24N 33°44' W 118°13'0 0.0
2018-Feb-11 02:00N 33°44' W 118°13'0 0.1
2018-Feb-11 01:30N 33°44' W 118°13'0 0.0
2018-Feb-11 01:00N 33°44' W 118°13'0 0.0
2018-Feb-11 00:30N 33°44' W 118°13'0 0.0
2018-Feb-11 00:00N 33°44' W 118°13'0 0.1
2018-Feb-10 23:30N 33°44' W 118°13'0 0.1
2018-Feb-10 23:00N 33°44' W 118°13'0 0.0
2018-Feb-10 22:30N 33°44' W 118°13'0 0.0
2018-Feb-10 22:00N 33°44' W 118°13'0 0.1
2018-Feb-10 21:30N 33°44' W 118°13'0 0.0
2018-Feb-10 21:00N 33°44' W 118°13'0 0.0
2018-Feb-10 20:27N 33°44' W 118°13'0 0.0
2018-Feb-10 20:00N 33°44' W 118°13'0 0.0
2018-Feb-10 19:30N 33°44' W 118°13'0 0.0
2018-Feb-10 18:51N 33°44' W 118°13'0 0.0
2018-Feb-10 18:30N 33°44' W 118°13'0 0.0
2018-Feb-10 18:00N 33°44' W 118°13'0 0.0
2018-Feb-10 17:27N 33°44' W 118°13'0 0.0
2018-Feb-10 17:00N 33°44' W 118°13'0 0.0
2018-Feb-10 16:30N 33°44' W 118°13'0 0.0
2018-Feb-10 15:57N 33°44' W 118°13'0 0.0
2018-Feb-10 15:27N 33°44' W 118°13'0 0.0
2018-Feb-10 14:57N 33°44' W 118°13'0 0.1
2018-Feb-10 14:30N 33°44' W 118°13'0 0.1
2018-Feb-10 14:00N 33°44' W 118°13'0 0.0
2018-Feb-10 13:27N 33°44' W 118°13'0 0.1
2018-Feb-10 12:54N 33°44' W 118°13'0 0.0
2018-Feb-10 12:27N 33°44' W 118°13'0 0.0
2018-Feb-10 11:48N 33°44' W 118°13'0 0.0
2018-Feb-10 11:30N 33°44' W 118°13'0 0.0
2018-Feb-10 10:57N 33°44' W 118°13'0 0.0
2018-Feb-10 10:30N 33°44' W 118°13'0 0.0
2018-Feb-10 09:57N 33°44' W 118°13'0 0.1
2018-Feb-10 09:30N 33°44' W 118°13'0 0.0
2018-Feb-10 09:00N 33°44' W 118°13'0 0.0
2018-Feb-10 08:30N 33°44' W 118°13'0 0.0
2018-Feb-10 08:00N 33°44' W 118°13'0 0.0
2018-Feb-10 07:27N 33°44' W 118°13'0 0.0
2018-Feb-10 07:00N 33°44' W 118°13'0 0.0
2018-Feb-10 06:12N 33°44' W 118°13'0 0.0
2018-Feb-10 05:36N 33°44' W 118°13'0 0.0
2018-Feb-10 05:30N 33°44' W 118°13'0 0.0
2018-Feb-10 05:00N 33°44' W 118°13'0 0.0
2018-Feb-10 04:27N 33°44' W 118°13'0 0.0
2018-Feb-10 04:00N 33°44' W 118°13'0 0.0
2018-Feb-10 03:21N 33°44' W 118°13'0 0.0
2018-Feb-10 02:54N 33°44' W 118°13'0 0.1
2018-Feb-10 02:24N 33°44' W 118°13'0 0.0
2018-Feb-10 01:57N 33°44' W 118°13'0 0.0
2018-Feb-10 01:21N 33°44' W 118°13'0 0.0
2018-Feb-10 00:51N 33°44' W 118°13'0 0.0
2018-Feb-10 00:30N 33°44' W 118°13'0 0.0
2018-Feb-10 00:00N 33°44' W 118°13'0 0.0
2018-Feb-09 23:18N 33°44' W 118°13'0 0.0
2018-Feb-09 22:51N 33°44' W 118°13'0 0.0
2018-Feb-09 22:39N 33°44' W 118°13'  

Dump ship's entire track history